Caribbean Ferry — WDD3415 — position and weather

sailwx.info

Track history (hours):
 
Tides and Currents Weather Stations Pressure Air Temp Water Temp Dewpoint Dewpoint Depression Visibility Wind Speed Wind Dir Waves Ship Positions

Caribbean Ferry

Owner: Cross Sound Ferry Services,Inc., New London, CT. More information available from US FCC via Universal Licensing System and Coast Guard Vessel Documentation Center.

Last reported at 2015-Aug-31 23:33 UTC. Time now 2015-Sep-02 04:24 UTC.
Position N 41°19' W 072°05'.

Length 36 m.

Type: Passenger vessel. MMSI: 367130960.

Date/timePositionNaut miles runAvg speedWind from/ knotsBaromVisibWave heightAir tempDewpointWater temp
2015-Aug-31 23:33N 41°19' W 072°05'1211.5
2015-Aug-31 22:33N 41°09' W 072°14'4 3.6
2015-Aug-31 21:33N 41°12' W 072°12'10 9.7
2015-Aug-31 20:33N 41°21' W 072°05'3 3.2
2015-Aug-31 19:33N 41°18' W 072°05'1110.8
2015-Aug-31 18:33N 41°09' W 072°14'3 2.7
2015-Aug-31 17:34N 41°12' W 072°13'1010.5
2015-Aug-31 16:33N 41°20' W 072°05'3 2.8
2015-Aug-31 15:34N 41°17' W 072°05'1010.1
2015-Aug-31 14:34N 41°09' W 072°14'2 1.9
2015-Aug-31 13:34N 41°11' W 072°13'1211.7
2015-Aug-31 12:34N 41°21' W 072°05'9 0.2
2015-Aug-29 21:27N 41°13' W 072°11'0 0.1
2015-Aug-29 17:26N 41°13' W 072°11'9 0.4
2015-Aug-28 16:27N 41°21' W 072°06'4 4.2
2015-Aug-28 15:33N 41°18' W 072°06'1110.7
2015-Aug-28 14:33N 41°09' W 072°14'3 3.2
2015-Aug-28 13:33N 41°12' W 072°13'1110.8
2015-Aug-28 12:34N 41°21' W 072°05'4 0.3
2015-Aug-27 23:33N 41°18' W 072°05'1010.0
2015-Aug-27 22:33N 41°10' W 072°13'2 2.4
2015-Aug-27 21:33N 41°12' W 072°13'1110.7
2015-Aug-27 20:34N 41°21' W 072°05'3 3.5
2015-Aug-27 19:33N 41°18' W 072°05'1111.0
2015-Aug-27 18:33N 41°09' W 072°14'4 4.1
2015-Aug-27 17:33N 41°13' W 072°11'10 9.8
2015-Aug-27 16:33N 41°21' W 072°05'4 3.7
2015-Aug-27 15:33N 41°18' W 072°05'1111.2
2015-Aug-27 14:33N 41°09' W 072°14'3 3.5
2015-Aug-27 13:33N 41°12' W 072°13'1010.4
2015-Aug-27 12:34N 41°21' W 072°05'0 0.1
2015-Aug-27 11:33N 41°21' W 072°06'  
2015-Aug-24 23:33N 41°18' W 072°05'1111.5
2015-Aug-24 22:34N 41°09' W 072°14'3 3.0
2015-Aug-24 21:33N 41°12' W 072°13'1110.8
2015-Aug-24 20:33N 41°21' W 072°06'4 4.0
2015-Aug-24 19:33N 41°17' W 072°06'1010.4
2015-Aug-24 18:34N 41°09' W 072°14'4 3.9
2015-Aug-24 17:34N 41°13' W 072°12'1010.0
2015-Aug-24 16:34N 41°21' W 072°06'0 0.0
2015-Aug-24 12:33N 41°21' W 072°06'2 0.1
2015-Aug-24 00:33N 41°20' W 072°05'1211.5
2015-Aug-23 23:33N 41°10' W 072°13'1 1.4
2015-Aug-23 22:33N 41°11' W 072°13'1110.9
2015-Aug-23 21:33N 41°21' W 072°05'2 1.9
2015-Aug-23 20:33N 41°19' W 072°05'1110.6
2015-Aug-23 19:33N 41°10' W 072°13'1 1.4
2015-Aug-23 18:33N 41°11' W 072°13'1111.3
2015-Aug-23 17:33N 41°21' W 072°05'3 2.8
2015-Aug-23 16:33N 41°18' W 072°05'1111.2
2015-Aug-23 15:33N 41°09' W 072°14'3 3.2
2015-Aug-23 14:33N 41°12' W 072°12'1010.3
2015-Aug-23 13:33N 41°21' W 072°05'2 0.2
2015-Aug-22 23:33N 41°19' W 072°05'1211.8
2015-Aug-22 22:33N 41°09' W 072°14'4 4.2
2015-Aug-22 21:33N 41°13' W 072°11'9 9.4
2015-Aug-22 20:33N 41°21' W 072°06'5 4.6
2015-Aug-22 19:34N 41°17' W 072°06'10 9.9
2015-Aug-22 18:33N 41°09' W 072°14'3 3.2
2015-Aug-22 17:33N 41°12' W 072°13'1110.7
2015-Aug-22 16:33N 41°21' W 072°06'4 3.8
2015-Aug-22 15:33N 41°18' W 072°05'1110.8
2015-Aug-22 14:33N 41°09' W 072°14'3 3.4
2015-Aug-22 13:33N 41°12' W 072°12'1010.3
2015-Aug-22 12:34N 41°21' W 072°05'  
Track history (hours):
 
Tides and Currents Weather Stations Pressure Air Temp Water Temp Dewpoint Dewpoint Depression Visibility Wind Speed Wind Dir Waves Ship Positions

Caribbean Ferry

Owner: Cross Sound Ferry Services,Inc., New London, CT. More information available from US FCC via Universal Licensing System and Coast Guard Vessel Documentation Center.

Last reported at 2015-Aug-31 23:33 UTC. Time now 2015-Sep-02 04:24 UTC.
Position N 41°19' W 072°05'.

Length 36 m.

Type: Passenger vessel. MMSI: 367130960.

Date/timePositionNaut miles runAvg speedWind from/ knotsBaromVisibWave heightAir tempDewpointWater temp
2015-Aug-31 23:33N 41°19' W 072°05'1211.5
2015-Aug-31 22:33N 41°09' W 072°14'4 3.6
2015-Aug-31 21:33N 41°12' W 072°12'10 9.7
2015-Aug-31 20:33N 41°21' W 072°05'3 3.2
2015-Aug-31 19:33N 41°18' W 072°05'1110.8
2015-Aug-31 18:33N 41°09' W 072°14'3 2.7
2015-Aug-31 17:34N 41°12' W 072°13'1010.5
2015-Aug-31 16:33N 41°20' W 072°05'3 2.8
2015-Aug-31 15:34N 41°17' W 072°05'1010.1
2015-Aug-31 14:34N 41°09' W 072°14'2 1.9
2015-Aug-31 13:34N 41°11' W 072°13'1211.7
2015-Aug-31 12:34N 41°21' W 072°05'9 0.2
2015-Aug-29 21:27N 41°13' W 072°11'0 0.1
2015-Aug-29 17:26N 41°13' W 072°11'9 0.4
2015-Aug-28 16:27N 41°21' W 072°06'4 4.2
2015-Aug-28 15:33N 41°18' W 072°06'1110.7
2015-Aug-28 14:33N 41°09' W 072°14'3 3.2
2015-Aug-28 13:33N 41°12' W 072°13'1110.8
2015-Aug-28 12:34N 41°21' W 072°05'4 0.3
2015-Aug-27 23:33N 41°18' W 072°05'1010.0
2015-Aug-27 22:33N 41°10' W 072°13'2 2.4
2015-Aug-27 21:33N 41°12' W 072°13'1110.7
2015-Aug-27 20:34N 41°21' W 072°05'3 3.5
2015-Aug-27 19:33N 41°18' W 072°05'1111.0
2015-Aug-27 18:33N 41°09' W 072°14'4 4.1
2015-Aug-27 17:33N 41°13' W 072°11'10 9.8
2015-Aug-27 16:33N 41°21' W 072°05'4 3.7
2015-Aug-27 15:33N 41°18' W 072°05'1111.2
2015-Aug-27 14:33N 41°09' W 072°14'3 3.5
2015-Aug-27 13:33N 41°12' W 072°13'1010.4
2015-Aug-27 12:34N 41°21' W 072°05'0 0.1
2015-Aug-27 11:33N 41°21' W 072°06'  
2015-Aug-24 23:33N 41°18' W 072°05'1111.5
2015-Aug-24 22:34N 41°09' W 072°14'3 3.0
2015-Aug-24 21:33N 41°12' W 072°13'1110.8
2015-Aug-24 20:33N 41°21' W 072°06'4 4.0
2015-Aug-24 19:33N 41°17' W 072°06'1010.4
2015-Aug-24 18:34N 41°09' W 072°14'4 3.9
2015-Aug-24 17:34N 41°13' W 072°12'1010.0
2015-Aug-24 16:34N 41°21' W 072°06'0 0.0
2015-Aug-24 12:33N 41°21' W 072°06'2 0.1
2015-Aug-24 00:33N 41°20' W 072°05'1211.5
2015-Aug-23 23:33N 41°10' W 072°13'1 1.4
2015-Aug-23 22:33N 41°11' W 072°13'1110.9
2015-Aug-23 21:33N 41°21' W 072°05'2 1.9
2015-Aug-23 20:33N 41°19' W 072°05'1110.6
2015-Aug-23 19:33N 41°10' W 072°13'1 1.4
2015-Aug-23 18:33N 41°11' W 072°13'1111.3
2015-Aug-23 17:33N 41°21' W 072°05'3 2.8
2015-Aug-23 16:33N 41°18' W 072°05'1111.2
2015-Aug-23 15:33N 41°09' W 072°14'3 3.2
2015-Aug-23 14:33N 41°12' W 072°12'1010.3
2015-Aug-23 13:33N 41°21' W 072°05'2 0.2
2015-Aug-22 23:33N 41°19' W 072°05'1211.8
2015-Aug-22 22:33N 41°09' W 072°14'4 4.2
2015-Aug-22 21:33N 41°13' W 072°11'9 9.4
2015-Aug-22 20:33N 41°21' W 072°06'5 4.6
2015-Aug-22 19:34N 41°17' W 072°06'10 9.9
2015-Aug-22 18:33N 41°09' W 072°14'3 3.2
2015-Aug-22 17:33N 41°12' W 072°13'1110.7
2015-Aug-22 16:33N 41°21' W 072°06'4 3.8
2015-Aug-22 15:33N 41°18' W 072°05'1110.8
2015-Aug-22 14:33N 41°09' W 072°14'3 3.4
2015-Aug-22 13:33N 41°12' W 072°12'1010.3
2015-Aug-22 12:34N 41°21' W 072°05'  

Dump ship's entire track history